Time;durP1;ratioP1;P1;durP2;ratioP2;P2;SDS_P1;SDS_P2;PMS_P1;PMS_P2;Temp;Humidity;BMP_temperature;BMP_pressure;BME280_temperature;BME280_humidity;BME280_pressure;Samples;Min_cycle;Max_cycle;Signal;HPM_P1;HPM_P2
2023/01/09 00:01:41;;;;;;;5.05;1.58;;;;;;;-148.88;100.00;74808.47;5017162;28;20327;-75
2023/01/09 00:04:07;;;;;;;4.18;1.63;;;;;;;-148.88;100.00;74814.53;5034561;28;20028;-75
2023/01/09 00:06:33;;;;;;;3.38;1.75;;;;;;;-148.88;100.00;74816.56;5034621;28;20028;-75
2023/01/09 00:08:59;;;;;;;2.55;1.45;;;;;;;-148.88;100.00;74806.44;5034428;28;20017;-75
2023/01/09 00:11:24;;;;;;;3.90;1.60;;;;;;;-148.88;100.00;74804.41;5016623;28;20075;-75
2023/01/09 00:13:49;;;;;;;3.58;1.42;;;;;;;-148.88;100.00;74792.22;5016630;28;20017;-75
2023/01/09 00:16:17;;;;;;;3.40;1.60;;;;;;;-148.88;100.00;74780.03;5034873;28;20116;-75
2023/01/09 00:18:42;;;;;;;4.28;1.85;;;;;;;-148.88;100.00;74778.00;5017609;28;20547;-75
2023/01/09 00:21:09;;;;;;;2.97;1.83;;;;;;;-148.88;100.00;74767.84;5035531;28;20025;-75
2023/01/09 00:23:35;;;;;;;5.18;1.40;;;;;;;-148.88;100.00;74769.88;5034487;28;20033;-75
2023/01/09 00:28:28;;;;;;;4.05;1.75;;;;;;;-148.88;100.00;74759.72;5013176;28;20057;-76
2023/01/09 00:30:58;;;;;;;4.03;2.10;;;;;;;-148.88;100.00;74769.88;5014251;28;20501;-75
2023/01/09 00:33:29;;;;;;;4.13;1.92;;;;;;;-148.88;100.00;74765.81;5014316;28;20494;-75
2023/01/09 00:35:54;;;;;;;3.38;1.63;;;;;;;-148.88;100.00;74757.69;5014342;28;20533;-75
2023/01/09 00:38:19;;;;;;;2.92;2.00;;;;;;;-148.88;100.00;74757.69;5014053;28;20087;-75
2023/01/09 00:43:12;;;;;;;3.75;2.20;;;;;;;-148.88;100.00;74775.97;5019320;28;20050;-79
2023/01/09 00:45:38;;;;;;;4.47;2.78;;;;;;;-148.88;100.00;74780.03;5019059;28;20025;-79
2023/01/09 00:48:10;;;;;;;7.45;2.88;;;;;;;-148.88;100.00;74788.16;5021420;28;20025;-79
2023/01/09 00:50:36;;;;;;;4.55;2.40;;;;;;;-148.88;100.00;74788.16;5003735;28;20022;-79
2023/01/09 00:53:12;;;;;;;4.20;2.45;;;;;;;-148.88;100.00;74798.31;5004465;28;20044;-79
2023/01/09 00:55:39;;;;;;;4.63;2.75;;;;;;;-148.88;100.00;74800.34;5021772;28;20040;-78
2023/01/09 00:58:05;;;;;;;4.47;2.60;;;;;;;-148.88;100.00;74804.41;5021681;28;20026;-79
2023/01/09 01:00:30;;;;;;;5.85;3.10;;;;;;;-148.88;100.00;74806.44;5004594;28;20056;-79
2023/01/09 01:02:56;;;;;;;5.07;2.95;;;;;;;-148.88;100.00;74802.38;5022172;28;20025;-79
2023/01/09 01:08:13;;;;;;;3.85;2.70;;;;;;;-148.88;100.00;74802.38;5022057;28;20122;-79
2023/01/09 01:10:38;;;;;;;7.65;2.95;;;;;;;-148.88;100.00;74800.34;5022223;28;20041;-79
2023/01/09 01:13:04;;;;;;;4.70;2.80;;;;;;;-148.88;100.00;74806.44;5021457;28;20030;-79
2023/01/09 01:15:30;;;;;;;7.70;3.20;;;;;;;-148.88;100.00;74806.44;5021382;28;20060;-79
2023/01/09 01:17:55;;;;;;;4.55;3.10;;;;;;;-148.88;100.00;74802.38;5021709;28;20025;-79
2023/01/09 01:20:21;;;;;;;4.82;2.97;;;;;;;-148.88;100.00;74794.25;5020931;28;20026;-79
2023/01/09 01:22:46;;;;;;;4.57;2.72;;;;;;;-148.88;100.00;74794.25;5019206;28;20018;-79
2023/01/09 01:25:13;;;;;;;5.10;3.30;;;;;;;-148.88;100.00;74802.38;5021518;28;20048;-79
2023/01/09 01:27:39;;;;;;;7.85;2.83;;;;;;;-148.88;100.00;74796.28;5003928;28;20032;-79
2023/01/09 01:30:07;;;;;;;4.20;2.38;;;;;;;-148.88;100.00;74794.25;5022110;28;20022;-79
2023/01/09 01:32:33;;;;;;;5.07;2.63;;;;;;;-148.88;100.00;74794.25;5021135;28;20032;-79
2023/01/09 01:34:58;;;;;;;4.15;2.25;;;;;;;-148.88;100.00;74794.25;5003512;28;20029;-79
2023/01/09 01:37:23;;;;;;;3.63;2.00;;;;;;;-148.88;100.00;74790.19;5020826;28;20032;-79
2023/01/09 01:39:50;;;;;;;5.63;2.30;;;;;;;-148.88;100.00;74796.28;5004439;28;20025;-79
2023/01/09 01:42:16;;;;;;;3.20;1.92;;;;;;;-148.88;100.00;74798.31;5021076;28;20179;-79
2023/01/09 01:45:01;;;;;;;3.00;1.77;;;;;;;-148.88;100.00;74806.44;5020446;28;20057;-79
2023/01/09 01:47:39;;;;;;;4.75;2.13;;;;;;;-148.88;100.00;74814.53;5020628;28;20057;-79
2023/01/09 01:50:12;;;;;;;3.20;1.77;;;;;;;-148.88;100.00;74826.72;5002285;28;20030;-78
2023/01/09 01:52:37;;;;;;;3.22;1.52;;;;;;;-148.88;100.00;74822.66;5019203;28;20033;-79
2023/01/09 01:55:06;;;;;;;3.67;1.45;;;;;;;-148.88;100.00;74830.78;5000845;28;20026;-80
2023/01/09 01:57:31;;;;;;;4.65;1.08;;;;;;;-148.88;100.00;74842.97;5017198;28;20036;-79
2023/01/09 02:00:01;;;;;;;3.08;1.20;;;;;;;-148.88;100.00;74851.09;4998508;28;20021;-79
2023/01/09 02:02:30;;;;;;;3.22;0.90;;;;;;;-148.88;100.00;74859.22;4999824;28;20021;-79
2023/01/09 02:04:58;;;;;;;1.92;0.80;;;;;;;-148.88;100.00;74873.44;4999436;28;20029;-80
2023/01/09 02:07:23;;;;;;;0.95;0.45;;;;;;;-148.88;100.00;74891.72;4999580;28;20025;-80
2023/01/09 02:09:49;;;;;;;0.38;0.28;;;;;;;-148.88;100.00;74903.91;5001760;28;20052;-80
2023/01/09 02:12:18;;;;;;;0.30;0.20;;;;;;;-148.88;100.00;74920.16;5017746;28;20362;-79
2023/01/09 02:14:45;;;;;;;1.92;0.30;;;;;;;-148.88;100.00;74905.94;5016942;28;20029;-80
2023/01/09 02:17:37;;;;;;;0.77;0.20;;;;;;;-148.88;100.00;74914.06;4999446;28;20025;-80
2023/01/09 02:20:18;;;;;;;0.40;0.20;;;;;;;-148.88;100.00;74916.09;5017112;28;20128;-80
2023/01/09 02:23:20;;;;;;;0.70;0.32;;;;;;;-148.88;100.00;74907.97;5000005;28;20045;-79
2023/01/09 02:26:12;;;;;;;2.40;0.52;;;;;;;-148.88;100.00;74901.88;5017358;28;20026;-80
2023/01/09 02:28:57;;;;;;;0.98;0.50;;;;;;;-148.88;100.00;74895.78;5000470;28;20026;-80
2023/01/09 02:31:48;;;;;;;1.70;0.57;;;;;;;-148.88;100.00;74887.66;5015811;28;20022;-78
2023/01/09 02:34:30;;;;;;;2.45;0.50;;;;;;;-148.88;100.00;74893.75;5001031;28;20026;-79
2023/01/09 02:37:31;;;;;;;1.13;0.40;;;;;;;-148.88;100.00;74903.91;5018776;28;20026;-78
2023/01/09 02:40:08;;;;;;;2.78;0.50;;;;;;;-148.88;100.00;74901.88;4934184;28;20044;-80
2023/01/09 02:42:35;;;;;;;1.13;0.43;;;;;;;-148.88;100.00;74903.91;5020259;28;20030;-79
2023/01/09 02:45:02;;;;;;;0.63;0.63;;;;;;;-148.88;100.00;74907.97;5020338;28;20100;-80
2023/01/09 02:47:28;;;;;;;1.83;0.57;;;;;;;-148.88;100.00;74905.94;5020786;28;20076;-79
2023/01/09 02:50:05;;;;;;;0.90;0.60;;;;;;;-148.88;100.00;74895.78;5003057;28;20018;-80
2023/01/09 02:52:30;;;;;;;0.55;0.40;;;;;;;-148.88;100.00;74903.91;5003331;28;20022;-80
2023/01/09 02:55:18;;;;;;;0.73;0.50;;;;;;;-148.88;100.00;74905.94;5002914;28;20030;-79
2023/01/09 02:58:03;;;;;;;0.80;0.50;;;;;;;-148.88;100.00;74905.94;5021239;28;20455;-79
2023/01/09 03:00:44;;;;;;;1.00;0.50;;;;;;;-148.88;100.00;74903.91;5003517;28;20030;-80
2023/01/09 03:03:36;;;;;;;0.60;0.40;;;;;;;-148.88;100.00;74912.03;5020962;28;20100;-80
2023/01/09 03:06:17;;;;;;;0.80;0.50;;;;;;;-148.88;100.00;74916.09;5019881;28;20026;-80
2023/01/09 03:08:48;;;;;;;1.25;0.45;;;;;;;-148.88;100.00;74905.94;5018848;28;20029;-79
2023/01/09 03:11:13;;;;;;;1.40;0.32;;;;;;;-148.88;100.00;74907.97;5000243;28;20041;-78
2023/01/09 03:13:53;;;;;;;2.17;0.40;;;;;;;-148.88;100.00;74926.25;5018173;28;20022;-80
2023/01/09 03:16:24;;;;;;;0.82;0.30;;;;;;;-148.88;100.00;74910.00;5020500;28;20385;-80
2023/01/09 03:18:50;;;;;;;0.93;0.40;;;;;;;-148.88;100.00;74916.09;5021796;28;20028;-80
2023/01/09 03:21:17;;;;;;;0.50;0.35;;;;;;;-148.88;100.00;74918.13;5020761;28;20381;-80
2023/01/09 03:23:45;;;;;;;0.43;0.35;;;;;;;-148.88;100.00;74920.16;5002777;28;20125;-80
2023/01/09 03:26:10;;;;;;;1.00;0.47;;;;;;;-148.88;100.00;74920.16;5002191;28;20061;-80
2023/01/09 03:28:35;;;;;;;0.40;0.30;;;;;;;-148.88;100.00;74912.03;5020805;28;20045;-79
2023/01/09 03:31:01;;;;;;;0.95;0.50;;;;;;;-148.88;100.00;74903.91;5003037;28;20026;-80
2023/01/09 03:33:27;;;;;;;1.75;0.55;;;;;;;-148.88;100.00;74916.09;5002882;28;20033;-80
2023/01/09 03:35:53;;;;;;;2.67;0.68;;;;;;;-148.88;100.00;74916.09;5020880;28;20026;-80
2023/01/09 03:38:18;;;;;;;2.22;0.70;;;;;;;-148.88;100.00;74928.28;5020977;28;20026;-80
2023/01/09 03:40:43;;;;;;;1.17;0.63;;;;;;;-148.88;100.00;74928.28;5020767;28;20029;-78
2023/01/09 03:43:09;;;;;;;1.55;0.80;;;;;;;-148.88;100.00;74924.22;5018114;28;20040;-79
2023/01/09 03:45:34;;;;;;;1.70;0.73;;;;;;;-148.88;100.00;74928.28;5000326;28;20022;-78
2023/01/09 03:47:59;;;;;;;2.40;1.20;;;;;;;-148.88;100.00;74932.34;5018250;28;20160;-78
2023/01/09 03:50:25;;;;;;;1.33;0.80;;;;;;;-148.88;100.00;74926.25;5000661;28;20030;-79
2023/01/09 03:52:51;;;;;;;1.60;0.85;;;;;;;-148.88;100.00;74922.19;5002870;28;20024;-79
2023/01/09 03:55:16;;;;;;;2.17;1.10;;;;;;;-148.88;100.00;74926.25;5020261;28;20560;-80
2023/01/09 03:57:41;;;;;;;2.85;1.10;;;;;;;-148.88;100.00;74920.16;5020411;28;20054;-80
2023/01/09 04:00:09;;;;;;;4.47;1.27;;;;;;;-148.88;100.00;74932.34;5020632;28;20469;-80
2023/01/09 04:02:35;;;;;;;4.20;1.90;;;;;;;-148.88;100.00;74932.34;5004143;28;20025;-80
2023/01/09 04:05:00;;;;;;;3.60;2.10;;;;;;;-148.88;100.00;74940.47;5021183;28;20026;-80
2023/01/09 04:07:25;;;;;;;3.80;2.13;;;;;;;-148.88;100.00;74928.28;5022621;28;20041;-80
2023/01/09 04:09:50;;;;;;;4.20;2.40;;;;;;;-148.88;100.00;74940.47;5004786;28;20022;-80
2023/01/09 04:12:16;;;;;;;2.90;1.90;;;;;;;-148.88;100.00;74944.53;5020766;28;20022;-79
2023/01/09 04:14:41;;;;;;;5.32;2.40;;;;;;;-148.88;100.00;74940.47;5020904;28;20062;-80
2023/01/09 04:17:06;;;;;;;3.88;2.28;;;;;;;-148.88;100.00;74952.63;5001913;28;20026;-79
2023/01/09 04:19:32;;;;;;;4.63;2.78;;;;;;;-148.88;100.00;74946.53;5019064;28;20022;-77
2023/01/09 04:21:57;;;;;;;5.13;2.58;;;;;;;-148.88;100.00;74944.53;5000996;28;20477;-78
2023/01/09 04:24:22;;;;;;;5.18;2.95;;;;;;;-148.88;100.00;74948.56;5001433;28;20022;-79
2023/01/09 04:26:47;;;;;;;5.18;2.45;;;;;;;-148.88;100.00;74964.81;4999786;28;20028;-79
2023/01/09 04:29:13;;;;;;;5.15;2.67;;;;;;;-148.88;100.00;74956.69;5002107;28;20049;-79
2023/01/09 04:31:38;;;;;;;4.78;2.90;;;;;;;-148.88;100.00;74962.78;5019255;28;20038;-79
2023/01/09 04:34:03;;;;;;;5.65;3.25;;;;;;;-148.88;100.00;74977.00;5001419;28;20018;-78
2023/01/09 04:36:29;;;;;;;7.70;3.78;;;;;;;-148.88;100.00;74981.06;5001890;28;20199;-79
2023/01/09 04:38:54;;;;;;;4.78;3.00;;;;;;;-148.88;100.00;74983.09;5019243;28;20542;-79
2023/01/09 04:44:03;;;;;;;8.30;3.72;;;;;;;-148.88;100.00;74981.06;5020540;28;20075;-80
2023/01/09 04:46:28;;;;;;;8.57;3.92;;;;;;;-148.88;100.00;74989.19;5020400;28;20109;-79
2023/01/09 04:48:54;;;;;;;8.20;4.53;;;;;;;-148.88;100.00;75001.38;5002928;28;20021;-79
2023/01/09 04:51:19;;;;;;;10.98;4.78;;;;;;;-148.88;100.00;74999.34;5020599;28;20068;-79
2023/01/09 04:53:44;;;;;;;10.57;5.53;;;;;;;-148.88;100.00;75007.47;5018925;28;20392;-79
2023/01/09 04:56:10;;;;;;;10.60;5.93;;;;;;;-148.88;100.00;75001.38;5019006;28;20030;-79
2023/01/09 04:58:35;;;;;;;10.02;5.43;;;;;;;-148.88;100.00;75005.44;5018793;28;20026;-77
2023/01/09 05:01:00;;;;;;;12.70;5.50;;;;;;;-148.88;100.00;75009.50;5000768;28;20109;-77
2023/01/09 05:03:25;;;;;;;11.18;5.05;;;;;;;-148.88;100.00;75009.50;5017308;28;20018;-79
2023/01/09 05:05:51;;;;;;;11.77;4.97;;;;;;;-148.88;100.00;75017.63;5000809;28;20053;-79
2023/01/09 05:08:16;;;;;;;12.40;5.15;;;;;;;-148.88;100.00;75029.81;5019145;28;20018;-79
2023/01/09 05:10:41;;;;;;;9.20;4.38;;;;;;;-148.88;100.00;75025.75;5019377;28;20104;-79
2023/01/09 05:13:06;;;;;;;9.27;4.35;;;;;;;-148.88;100.00;75033.88;5019042;28;20026;-79
2023/01/09 05:15:32;;;;;;;9.70;4.38;;;;;;;-148.88;100.00;75044.03;5019169;28;20529;-79
2023/01/09 05:17:57;;;;;;;7.15;4.25;;;;;;;-148.88;100.00;75029.81;5001176;28;20098;-78
2023/01/09 05:20:22;;;;;;;10.73;4.53;;;;;;;-148.88;100.00;75046.06;5018873;28;20172;-78
2023/01/09 05:22:47;;;;;;;12.82;4.07;;;;;;;-148.88;100.00;75052.16;5000698;28;20040;-79
2023/01/09 05:25:13;;;;;;;9.10;3.90;;;;;;;-148.88;100.00;75050.13;5018996;28;20052;-80
2023/01/09 05:27:38;;;;;;;9.93;3.95;;;;;;;-148.88;100.00;75070.44;5001610;28;20037;-79
2023/01/09 05:30:04;;;;;;;8.88;4.13;;;;;;;-148.88;100.00;75058.25;5018784;28;20021;-78
2023/01/09 05:32:29;;;;;;;7.82;3.65;;;;;;;-148.88;100.00;75048.09;5019203;28;20046;-78
2023/01/09 05:34:54;;;;;;;9.95;3.55;;;;;;;-148.88;100.00;75086.69;5001209;28;20452;-79
2023/01/09 05:37:24;;;;;;;8.43;3.75;;;;;;;-148.88;100.00;75086.69;5018080;28;20018;-77
2023/01/09 05:39:49;;;;;;;8.35;3.42;;;;;;;-148.88;100.00;75092.78;4999491;28;20026;-78
2023/01/09 05:42:15;;;;;;;6.32;2.90;;;;;;;-148.88;100.00;75086.69;5003870;28;20115;-79
2023/01/09 05:44:40;;;;;;;8.35;3.58;;;;;;;-148.88;100.00;75102.91;5003604;28;20068;-79
2023/01/09 05:47:05;;;;;;;6.70;3.08;;;;;;;-148.88;100.00;75106.97;5021127;28;20081;-79
2023/01/09 05:49:31;;;;;;;6.65;3.33;;;;;;;-148.88;100.00;75104.94;5021859;28;20107;-79
2023/01/09 05:51:56;;;;;;;7.63;4.18;;;;;;;-148.88;100.00;75113.06;5003692;28;20026;-78
2023/01/09 05:54:21;;;;;;;9.90;4.53;;;;;;;-148.88;100.00;75094.81;5021036;28;20029;-79
2023/01/09 05:56:46;;;;;;;10.32;4.25;;;;;;;-148.88;100.00;75115.09;5022013;28;20044;-78
2023/01/09 05:59:12;;;;;;;9.98;4.63;;;;;;;-148.88;100.00;75100.88;5021341;28;20084;-79
2023/01/09 06:01:37;;;;;;;16.42;5.15;;;;;;;-148.88;100.00;75111.03;5005552;28;20029;-79
2023/01/09 06:04:02;;;;;;;11.63;5.63;;;;;;;-148.88;100.00;75106.97;5023106;28;20026;-79
2023/01/09 06:06:28;;;;;;;12.20;5.72;;;;;;;-148.88;100.00;75123.22;5005142;28;20025;-79
2023/01/09 06:08:53;;;;;;;15.10;6.03;;;;;;;-148.88;100.00;75106.97;5023024;28;20022;-79
2023/01/09 06:11:18;;;;;;;13.90;6.28;;;;;;;-148.88;100.00;75111.03;5001868;28;20021;-81
2023/01/09 06:13:44;;;;;;;11.07;6.07;;;;;;;-148.88;100.00;75111.03;5015386;28;20029;-78
2023/01/09 06:16:09;;;;;;;13.07;5.72;;;;;;;-148.88;100.00;75121.19;4996584;28;20025;-80
2023/01/09 06:18:34;;;;;;;14.18;5.63;;;;;;;-148.88;100.00;75102.91;5015396;28;20029;-80
2023/01/09 06:20:59;;;;;;;13.15;5.65;;;;;;;-148.88;100.00;75111.03;4998069;28;20113;-81
2023/01/09 06:23:25;;;;;;;13.15;6.10;;;;;;;-148.88;100.00;75113.06;5016316;28;20029;-80
2023/01/09 06:25:50;;;;;;;14.18;6.50;;;;;;;-148.88;100.00;75111.03;4998418;28;20112;-80
2023/01/09 06:28:15;;;;;;;10.88;5.70;;;;;;;-148.88;100.00;75111.03;5016608;28;20052;-80
2023/01/09 06:30:41;;;;;;;15.27;6.43;;;;;;;-148.88;100.00;75115.09;4998959;28;20025;-81
2023/01/09 06:33:06;;;;;;;12.30;5.95;;;;;;;-148.88;100.00;75117.13;4998815;28;20025;-81
2023/01/09 06:35:31;;;;;;;11.68;5.95;;;;;;;-148.88;100.00;75115.09;5017576;28;20396;-81
2023/01/09 06:38:00;;;;;;;16.33;7.28;;;;;;;-148.88;100.00;75111.03;5016581;28;20370;-79
2023/01/09 06:40:25;;;;;;;13.55;6.80;;;;;;;-148.88;100.00;75115.09;5015579;28;20026;-79
2023/01/09 06:42:50;;;;;;;17.23;7.53;;;;;;;-148.88;100.00;75127.28;5015581;28;20424;-79
2023/01/09 06:45:16;;;;;;;17.00;7.60;;;;;;;-148.88;100.00;75139.47;4998462;28;20424;-79
2023/01/09 06:47:42;;;;;;;15.90;7.22;;;;;;;-148.88;100.00;75147.59;4997714;28;20024;-80
2023/01/09 06:50:08;;;;;;;17.85;8.13;;;;;;;-148.88;100.00;75157.75;4996880;28;20397;-79
2023/01/09 06:52:34;;;;;;;19.08;8.15;;;;;;;-148.88;100.00;75155.72;4996074;28;20026;-79
2023/01/09 06:55:00;;;;;;;17.50;8.27;;;;;;;-148.88;100.00;75149.63;5014635;28;20030;-79
2023/01/09 06:57:26;;;;;;;21.60;8.02;;;;;;;-148.88;100.00;75145.56;5002429;28;20057;-77
2023/01/09 06:59:51;;;;;;;17.88;8.25;;;;;;;-148.88;100.00;75151.66;5017975;28;20067;-79
2023/01/09 07:02:20;;;;;;;18.08;8.68;;;;;;;-148.88;100.00;75163.84;5016148;28;20026;-80
2023/01/09 07:04:45;;;;;;;16.45;7.22;;;;;;;-148.88;100.00;75176.03;4997906;28;20117;-79
2023/01/09 07:07:11;;;;;;;14.73;7.00;;;;;;;-148.88;100.00;75171.97;4997887;28;20465;-80
2023/01/09 07:09:37;;;;;;;11.70;6.00;;;;;;;-148.88;100.00;75171.97;4998125;28;20017;-80
2023/01/09 07:12:02;;;;;;;9.73;5.18;;;;;;;-148.88;100.00;75163.84;5015638;28;20370;-79
2023/01/09 07:14:27;;;;;;;10.05;4.70;;;;;;;-148.88;100.00;75171.97;5014444;28;20029;-79
2023/01/09 07:16:53;;;;;;;14.57;5.22;;;;;;;-148.88;100.00;75161.81;4996560;28;20022;-78
2023/01/09 07:19:18;;;;;;;12.52;5.00;;;;;;;-148.88;100.00;75169.94;5016709;28;20030;-78
2023/01/09 07:21:43;;;;;;;10.07;4.70;;;;;;;-148.88;100.00;75176.03;5017898;28;20455;-78
2023/01/09 07:24:09;;;;;;;11.40;5.50;;;;;;;-148.88;100.00;75171.97;5017867;28;20060;-77
2023/01/09 07:26:34;;;;;;;9.65;4.57;;;;;;;-148.88;100.00;75184.16;5017644;28;20038;-78
2023/01/09 07:28:59;;;;;;;13.10;4.20;;;;;;;-148.88;100.00;75184.16;4999193;28;20025;-77
2023/01/09 07:31:25;;;;;;;9.43;3.90;;;;;;;-148.88;100.00;75194.31;4999822;28;20083;-78
2023/01/09 07:33:50;;;;;;;10.23;4.20;;;;;;;-148.88;100.00;75196.34;5000912;28;20022;-78
2023/01/09 07:36:15;;;;;;;8.65;4.53;;;;;;;-148.88;100.00;75204.47;5000787;28;20050;-77
2023/01/09 07:38:41;;;;;;;13.75;4.65;;;;;;;-148.88;100.00;75206.50;5000895;28;20079;-79
2023/01/09 07:41:06;;;;;;;13.30;4.80;;;;;;;-148.88;100.00;75202.44;5000920;28;20050;-78
2023/01/09 07:43:31;;;;;;;11.00;3.75;;;;;;;-148.88;100.00;75212.59;5018716;28;20133;-79
2023/01/09 07:45:56;;;;;;;8.93;3.35;;;;;;;-148.88;100.00;75210.56;5019046;28;20024;-77
2023/01/09 07:48:22;;;;;;;10.25;3.42;;;;;;;-148.88;100.00;75208.53;5000319;28;20022;-79
2023/01/09 07:50:47;;;;;;;6.53;2.95;;;;;;;-148.88;100.00;75204.47;5000434;28;20026;-79
2023/01/09 07:53:13;;;;;;;8.43;2.78;;;;;;;-148.88;100.00;75202.44;5000647;28;20550;-78
2023/01/09 07:55:38;;;;;;;5.50;2.30;;;;;;;-148.88;100.00;75206.50;5000092;28;20030;-79
2023/01/09 07:58:03;;;;;;;11.50;2.53;;;;;;;-148.88;100.00;75204.47;5000187;28;20116;-79
2023/01/09 08:00:28;;;;;;;6.05;2.45;;;;;;;-148.88;100.00;75202.44;5000410;28;20025;-79
2023/01/09 08:02:54;;;;;;;10.30;3.35;;;;;;;-148.88;100.00;75204.47;5002020;28;20026;-78
2023/01/09 08:05:20;;;;;;;8.45;2.40;;;;;;;-148.88;100.00;75204.47;5003303;28;20022;-78
2023/01/09 08:07:45;;;;;;;9.05;3.38;;;;;;;-148.88;100.00;75200.41;4999785;28;20022;-78
2023/01/09 08:10:11;;;;;;;8.27;2.58;;;;;;;-148.88;100.00;75208.53;5017664;28;20025;-79
2023/01/09 08:12:37;;;;;;;7.32;2.60;;;;;;;-148.88;100.00;75198.38;5000437;28;20041;-79
2023/01/09 08:15:02;;;;;;;6.60;2.10;;;;;;;-148.88;100.00;75194.31;5017654;28;20101;-79
2023/01/09 08:17:27;;;;;;;6.30;2.47;;;;;;;-148.88;100.00;75196.34;5000506;28;20022;-79
2023/01/09 08:19:53;;;;;;;4.97;2.05;;;;;;;-148.88;100.00;75192.28;5018238;28;20022;-80
2023/01/09 08:22:18;;;;;;;7.50;2.08;;;;;;;-148.88;100.00;75192.28;5017832;28;20095;-78
2023/01/09 08:24:43;;;;;;;6.88;2.47;;;;;;;-148.88;100.00;75186.19;4999258;28;20116;-79
2023/01/09 08:27:09;;;;;;;4.45;1.70;;;;;;;-148.88;100.00;75188.22;5017293;28;20555;-79
2023/01/09 08:29:34;;;;;;;8.07;1.98;;;;;;;-148.88;100.00;75182.13;5016965;28;20029;-78
2023/01/09 08:31:59;;;;;;;9.07;2.30;;;;;;;-148.88;100.00;75186.19;5017179;28;20029;-79
2023/01/09 08:34:25;;;;;;;9.55;2.40;;;;;;;-148.88;100.00;75188.22;5017029;28;20032;-79
2023/01/09 08:36:52;;;;;;;7.88;2.00;;;;;;;-148.88;100.00;75186.19;4999554;28;20136;-79
2023/01/09 08:39:17;;;;;;;8.25;1.90;;;;;;;-148.88;100.00;75180.09;4998953;28;20026;-79
2023/01/09 08:47:20;;;;;;;;;;;;;;;-148.88;100.00;75186.19;5017316;28;20037;-78
2023/01/09 08:49:45;;;;;;;6.43;2.22;;;;;;;-148.88;100.00;75192.28;4999603;28;19909;-79
2023/01/09 08:52:12;;;;;;;5.35;2.22;;;;;;;-148.88;100.00;75198.38;5017517;28;20030;-80
2023/01/09 08:54:38;;;;;;;7.55;2.03;;;;;;;-148.88;100.00;75200.41;4999856;28;20496;-79
2023/01/09 08:57:05;;;;;;;9.35;3.03;;;;;;;-148.88;100.00;75200.41;4999759;28;20044;-79
2023/01/09 08:59:32;;;;;;;7.25;2.22;;;;;;;-148.88;100.00;75204.47;5016834;28;20547;-78
2023/01/09 09:01:58;;;;;;;7.35;2.35;;;;;;;-148.88;100.00;75200.41;5017873;28;20370;-79
2023/01/09 09:04:23;;;;;;;5.50;1.80;;;;;;;-148.88;100.00;75190.25;5017281;28;20028;-77
2023/01/09 09:06:49;;;;;;;6.20;2.47;;;;;;;-148.88;100.00;75192.28;5015869;28;20381;-78
2023/01/09 09:09:14;;;;;;;5.95;2.13;;;;;;;-148.88;100.00;75182.13;4998127;28;20021;-78
2023/01/09 09:11:40;;;;;;;6.45;2.00;;;;;;;-148.88;100.00;75188.22;4997941;28;20076;-78
2023/01/09 09:15:11;;;;;;;8.60;2.85;;;;;;;-148.88;100.00;75178.06;4997714;28;20036;-78
2023/01/09 09:16:51;;;;;;;9.63;2.00;;;;;;;-148.88;100.00;75182.13;5014855;28;20568;-78
2023/01/09 09:19:17;;;;;;;6.93;2.13;;;;;;;-148.88;100.00;75186.19;5014896;28;20037;-77
2023/01/09 09:21:42;;;;;;;5.97;1.80;;;;;;;-148.88;100.00;75178.06;5015207;28;20029;-79
2023/01/09 09:24:08;;;;;;;6.40;2.15;;;;;;;-148.88;100.00;75180.09;4998702;28;20022;-79
2023/01/09 09:26:33;;;;;;;8.90;2.33;;;;;;;-148.88;100.00;75178.06;5016742;28;20046;-79
2023/01/09 09:28:58;;;;;;;6.03;1.70;;;;;;;-148.88;100.00;75176.03;5016433;28;20032;-79
2023/01/09 09:31:23;;;;;;;5.22;2.08;;;;;;;-148.88;100.00;75169.94;5016917;28;20100;-79
2023/01/09 09:33:49;;;;;;;5.63;1.60;;;;;;;-148.88;100.00;75171.97;4998378;28;20049;-79
2023/01/09 09:36:14;;;;;;;4.68;1.60;;;;;;;-148.88;100.00;75167.91;5015842;28;20160;-79
2023/01/09 09:38:40;;;;;;;5.05;1.75;;;;;;;-148.88;100.00;75167.91;5015905;28;20030;-79
2023/01/09 09:47:24;;;;;;;3.45;1.48;;;;;;;-148.88;100.00;75167.91;5016153;28;20036;-79
2023/01/09 09:50:11;;;;;;;6.07;1.70;;;;;;;-148.88;100.00;75165.88;4998296;28;20370;-78
2023/01/09 09:53:06;;;;;;;5.40;1.63;;;;;;;-148.88;100.00;75151.66;4997996;28;20026;-77
2023/01/09 09:55:38;;;;;;;2.60;1.35;;;;;;;-148.88;100.00;75155.72;4997404;28;20033;-77
2023/01/09 09:58:14;;;;;;;4.93;1.50;;;;;;;-148.88;100.00;75145.56;4997639;28;20527;-79
2023/01/09 10:00:40;;;;;;;9.13;1.75;;;;;;;-148.88;100.00;75137.44;4999042;28;20171;-79
2023/01/09 10:03:12;;;;;;;4.75;1.42;;;;;;;-148.88;100.00;75129.31;5016840;28;20481;-78
2023/01/09 10:05:44;;;;;;;4.50;1.33;;;;;;;-148.88;100.00;75119.16;4999400;28;20101;-80
2023/01/09 10:08:33;;;;;;;3.13;1.25;;;;;;;-148.88;100.00;75111.03;5015437;28;20121;-78
2023/01/09 10:10:59;;;;;;;3.08;1.00;;;;;;;-148.88;100.00;75106.97;4997773;28;20388;-78
2023/01/09 10:16:28;;;;;;;;;;;;;;;-148.88;100.00;75086.69;5016792;28;20024;-79
2023/01/09 10:19:07;;;;;;;6.40;1.25;;;;;;;-148.88;100.00;75078.56;4997904;28;19976;-79
2023/01/09 10:22:00;;;;;;;3.88;1.15;;;;;;;-148.88;100.00;75076.53;5015674;28;20089;-79
2023/01/09 10:24:36;;;;;;;4.93;0.82;;;;;;;-148.88;100.00;75070.44;5016908;28;20056;-79
2023/01/09 10:27:13;;;;;;;3.33;0.80;;;;;;;-148.88;100.00;75082.63;4998738;28;20034;-78
2023/01/09 10:30:04;;;;;;;5.50;0.85;;;;;;;-148.88;100.00;75086.69;4997438;28;20014;-77
2023/01/09 10:32:44;;;;;;;4.82;0.90;;;;;;;-148.88;100.00;75086.69;5012838;28;20042;-78
2023/01/09 10:35:28;;;;;;;5.07;1.17;;;;;;;-148.88;100.00;75090.72;5014910;28;20038;-79
2023/01/09 10:37:58;;;;;;;3.10;1.00;;;;;;;-148.88;100.00;75082.63;5015945;28;20022;-79
2023/01/09 10:40:44;;;;;;;1.80;0.93;;;;;;;-148.88;100.00;75078.56;4998778;28;20504;-79
2023/01/09 10:43:40;;;;;;;2.97;1.00;;;;;;;-148.88;100.00;75082.63;4997474;28;20156;-77
2023/01/09 10:46:15;;;;;;;2.70;0.80;;;;;;;-148.88;100.00;75090.72;5014996;28;20485;-78
2023/01/09 10:48:51;;;;;;;4.00;0.80;;;;;;;-148.88;100.00;75084.66;4997189;28;20026;-78
2023/01/09 10:51:21;;;;;;;5.45;1.08;;;;;;;-148.88;100.00;75082.63;4997249;28;20056;-78
2023/01/09 10:53:50;;;;;;;4.57;0.75;;;;;;;-148.88;100.00;75082.63;4998719;28;20057;-77
2023/01/09 10:56:25;;;;;;;5.10;0.98;;;;;;;-148.88;100.00;75088.72;5000902;28;20053;-77
2023/01/09 10:58:52;;;;;;;3.70;1.13;;;;;;;-148.88;100.00;75076.53;5018533;28;20030;-78
2023/01/09 11:01:31;;;;;;;3.75;1.00;;;;;;;-148.88;100.00;75086.69;5018588;28;20033;-77
2023/01/09 11:04:01;;;;;;;9.05;1.60;;;;;;;-148.88;100.00;75098.84;5018447;28;20068;-78
2023/01/09 11:06:42;;;;;;;4.47;1.30;;;;;;;-148.88;100.00;75090.72;5017725;28;20029;-77
2023/01/09 11:09:07;;;;;;;4.72;1.10;;;;;;;-148.88;100.00;75090.72;5017674;28;20018;-78
2023/01/09 11:11:35;;;;;;;3.38;1.20;;;;;;;-148.88;100.00;75082.63;5017571;28;20022;-79
2023/01/09 11:14:12;;;;;;;3.92;1.27;;;;;;;-148.88;100.00;75096.81;5001389;28;20022;-80
2023/01/09 11:16:50;;;;;;;4.18;1.10;;;;;;;-148.88;100.00;75098.84;5001749;28;20029;-78
2023/01/09 11:19:15;;;;;;;3.22;0.90;;;;;;;-148.88;100.00;75090.72;5000657;28;20025;-79
2023/01/09 11:21:41;;;;;;;3.38;1.50;;;;;;;-148.88;100.00;75096.81;5017977;28;20034;-79
2023/01/09 11:24:18;;;;;;;3.30;1.38;;;;;;;-148.88;100.00;75082.63;5017966;28;20025;-78
2023/01/09 11:26:51;;;;;;;2.30;1.20;;;;;;;-148.88;100.00;75072.47;5018023;28;20505;-78
2023/01/09 11:29:18;;;;;;;3.05;1.00;;;;;;;-148.88;100.00;75066.38;5017990;28;20034;-79
2023/01/09 11:31:52;;;;;;;2.45;0.90;;;;;;;-148.88;100.00;75058.25;5018243;28;20033;-78
2023/01/09 11:34:22;;;;;;;5.28;1.33;;;;;;;-148.88;100.00;75062.31;5000477;28;20022;-78
2023/01/09 11:36:49;;;;;;;2.55;0.80;;;;;;;-148.88;100.00;75058.25;5018141;28;20026;-78
2023/01/09 11:39:23;;;;;;;6.15;1.40;;;;;;;-148.88;100.00;75068.41;5018003;28;20022;-78
2023/01/09 11:41:53;;;;;;;2.33;1.23;;;;;;;-148.88;100.00;75062.31;5017807;28;20076;-78